Time;durP1;ratioP1;P1;durP2;ratioP2;P2;SDS_P1;SDS_P2;PMS_P1;PMS_P2;Temp;Humidity;BMP_temperature;BMP_pressure;BME280_temperature;BME280_humidity;BME280_pressure;Samples;Min_cycle;Max_cycle;Signal;HPM_P1;HPM_P2
2022/09/13 00:01:29;;;;;;;;;5.75;5.75;;;;;22.96;55.65;100537.75;4902415;29;45914;-66
2022/09/13 00:03:54;;;;;;;;;8.50;8.50;;;;;22.92;55.61;100540.75;4903980;29;45319;-66
2022/09/13 00:06:20;;;;;;;;;6.50;6.50;;;;;22.90;56.25;100537.28;4903632;29;45269;-66
2022/09/13 00:08:46;;;;;;;;;6.50;6.50;;;;;22.94;56.34;100541.47;4899013;29;45593;-66
2022/09/13 00:11:18;;;;;;;;;7.00;7.00;;;;;22.94;56.08;100540.59;4900478;29;45641;-66
2022/09/13 00:13:43;;;;;;;;;11.00;11.00;;;;;22.91;56.30;100533.56;4903705;29;45368;-66
2022/09/13 00:16:14;;;;;;;;;8.50;7.75;;;;;22.93;56.78;100545.16;4903518;29;45482;-66
2022/09/13 00:18:40;;;;;;;;;10.25;10.00;;;;;22.92;56.67;100553.47;4897964;29;46362;-66
2022/09/13 00:21:16;;;;;;;;;10.50;9.50;;;;;22.92;56.60;100557.06;4898810;29;45668;-66
2022/09/13 00:23:46;;;;;;;;;9.00;8.00;;;;;22.91;56.74;100551.75;4902907;29;45254;-66
2022/09/13 00:26:15;;;;;;;;;8.25;7.00;;;;;22.87;56.53;100551.16;4888239;29;45682;-66
2022/09/13 00:28:41;;;;;;;;;7.50;6.25;;;;;22.89;56.68;100546.44;4877022;29;46218;-66
2022/09/13 00:31:08;;;;;;;;;6.50;6.50;;;;;22.86;56.57;100538.53;4900988;29;45277;-66
2022/09/13 00:33:34;;;;;;;;;8.75;8.00;;;;;22.87;56.22;100531.22;4902826;29;45343;-66
2022/09/13 00:36:08;;;;;;;;;8.75;7.75;;;;;22.87;56.59;100532.13;4903193;29;45368;-66
2022/09/13 00:38:38;;;;;;;;;6.75;6.75;;;;;22.84;56.66;100523.38;4902598;29;45774;-66
2022/09/13 00:41:07;;;;;;;;;6.00;5.00;;;;;22.83;56.65;100514.31;4902291;29;45812;-66
2022/09/13 00:43:52;;;;;;;;;9.25;8.50;;;;;22.84;56.22;100516.06;4902842;29;45388;-66
2022/09/13 00:46:34;;;;;;;;;7.25;7.00;;;;;22.80;56.55;100506.41;4903146;29;45325;-66
2022/09/13 00:49:20;;;;;;;;;4.25;2.50;;;;;22.82;56.48;100515.34;4900060;29;46037;-66
2022/09/13 00:51:52;;;;;;;;;6.00;6.00;;;;;22.77;56.87;100504.00;4884559;29;45645;-66
2022/09/13 00:54:23;;;;;;;;;9.50;7.75;;;;;22.76;56.75;100499.53;4903379;29;45388;-66
2022/09/13 00:56:54;;;;;;;;;7.25;6.25;;;;;22.76;56.64;100508.53;4903060;29;45446;-66
2022/09/13 00:59:25;;;;;;;;;8.00;7.75;;;;;22.81;56.64;100516.31;4901134;29;45450;-66
2022/09/13 01:01:54;;;;;;;;;8.75;6.25;;;;;22.79;56.96;100509.28;4901333;29;45289;-66
2022/09/13 01:04:24;;;;;;;;;7.75;6.75;;;;;22.79;57.14;100509.28;4902959;29;45471;-66
2022/09/13 01:06:53;;;;;;;;;6.00;6.00;;;;;22.80;57.31;100508.28;4902935;29;45430;-66
2022/09/13 01:09:19;;;;;;;;;7.25;7.25;;;;;22.79;57.43;100501.09;4898710;29;46302;-66
2022/09/13 01:11:54;;;;;;;;;9.50;8.75;;;;;22.76;57.18;100500.38;4900983;29;45432;-66
2022/09/13 01:14:22;;;;;;;;;11.50;9.00;;;;;22.72;57.21;100489.91;4900924;29;45507;-66
2022/09/13 01:16:48;;;;;;;;;9.00;8.00;;;;;22.64;57.29;100473.41;4901806;29;45357;-66
2022/09/13 01:19:13;;;;;;;;;6.75;6.75;;;;;22.76;56.66;100488.66;4899741;29;45743;-66
2022/09/13 01:21:56;;;;;;;;;9.00;8.25;;;;;22.75;57.41;100481.47;4900784;29;45429;-65
2022/09/13 01:24:52;;;;;;;;;9.00;7.75;;;;;22.74;56.60;100487.94;4900070;29;45432;-66
2022/09/13 01:27:33;;;;;;;;;10.00;9.00;;;;;22.74;57.29;100491.50;4889656;29;45416;-66
2022/09/13 01:30:16;;;;;;;;;8.00;7.00;;;;;22.71;57.19;100486.31;4898862;29;47308;-66
2022/09/13 01:33:06;;;;;;;;;8.00;8.00;;;;;22.73;57.41;100487.03;4902379;29;45479;-66
2022/09/13 01:35:56;;;;;;;;;9.50;9.50;;;;;22.73;56.34;100486.19;4902583;29;45385;-66
2022/09/13 01:38:57;;;;;;;;;11.50;8.75;;;;;22.72;56.35;100487.19;4900035;29;45566;-66
2022/09/13 01:41:29;;;;;;;;;10.25;7.75;;;;;22.72;57.22;100476.28;4892967;29;46546;-66
2022/09/13 01:44:13;;;;;;;;;10.00;8.00;;;;;22.64;56.56;100457.09;4900318;29;45638;-66
2022/09/13 01:46:45;;;;;;;;;9.50;9.00;;;;;22.73;56.44;100472.59;4902365;29;45474;-66
2022/09/13 01:49:25;;;;;;;;;9.50;9.25;;;;;22.73;56.48;100467.16;4892479;29;45487;-66
2022/09/13 01:52:06;;;;;;;;;8.00;7.00;;;;;22.69;56.65;100460.28;4900434;29;46768;-66
2022/09/13 01:54:52;;;;;;;;;8.50;8.25;;;;;22.74;56.45;100463.44;4902330;29;45461;-66
2022/09/13 01:57:32;;;;;;;;;9.00;7.75;;;;;22.72;56.75;100459.97;4891051;29;45485;-66
2022/09/13 02:00:14;;;;;;;;;8.00;8.00;;;;;22.69;56.96;100454.81;4898700;29;45691;-66
2022/09/13 02:02:47;;;;;;;;;9.00;9.00;;;;;22.74;57.05;100458.00;4902133;29;45576;-66
2022/09/13 02:05:23;;;;;;;;;9.50;8.50;;;;;22.73;57.20;100450.81;4889515;29;45404;-66
2022/09/13 02:08:27;;;;;;;;;10.25;9.00;;;;;22.63;56.46;100434.44;4900161;29;45380;-66
2022/09/13 02:11:02;;;;;;;;;9.75;7.25;;;;;22.72;56.08;100446.38;4897367;29;45335;-66
2022/09/13 02:13:35;;;;;;;;;9.75;8.75;;;;;22.66;55.93;100444.22;4892690;29;46384;-66
2022/09/13 02:16:09;;;;;;;;;8.75;8.50;;;;;22.68;55.94;100442.22;4901027;29;45733;-66
2022/09/13 02:18:40;;;;;;;;;9.75;9.75;;;;;22.69;55.47;100444.78;4899835;29;45482;-66
2022/09/13 02:21:22;;;;;;;;;5.50;5.50;;;;;22.69;55.82;100443.94;4899898;29;45601;-66
2022/09/13 02:23:53;;;;;;;;;9.00;9.00;;;;;22.58;55.56;100432.13;4901767;29;45401;-66
2022/09/13 02:26:21;;;;;;;;;9.50;9.00;;;;;22.63;55.56;100434.44;4896460;29;45511;-66
2022/09/13 02:28:51;;;;;;;;;13.00;9.25;;;;;22.63;55.89;100425.44;4892179;29;45568;-66
2022/09/13 02:31:27;;;;;;;;;10.00;10.00;;;;;22.67;55.37;100433.19;4899940;29;45296;-66
2022/09/13 02:34:20;;;;;;;;;7.75;7.25;;;;;22.68;56.23;100436.78;4901690;29;46342;-66
2022/09/13 02:36:48;;;;;;;;;8.75;8.75;;;;;22.66;56.21;100426.03;4901891;29;45637;-66
2022/09/13 02:39:21;;;;;;;;;10.25;9.25;;;;;22.67;56.43;100429.59;4900180;29;45257;-66
2022/09/13 02:42:10;;;;;;;;;12.25;8.50;;;;;22.66;56.41;100434.19;4899568;29;46023;-66
2022/09/13 02:44:46;;;;;;;;;12.25;12.25;;;;;22.67;56.32;100429.59;4891829;29;45414;-66
2022/09/13 02:47:23;;;;;;;;;10.25;9.25;;;;;22.65;55.94;100426.16;4901092;28;45411;-66
2022/09/13 02:50:01;;;;;;;;;9.25;8.75;;;;;22.64;55.45;100425.31;4899430;29;45407;-66
2022/09/13 02:52:51;;;;;;;;;13.50;10.50;;;;;22.64;56.00;100416.28;4900878;29;45341;-66
2022/09/13 02:55:55;;;;;;;;;7.50;7.50;;;;;22.62;55.75;100412.81;4902828;29;45731;-66
2022/09/13 02:58:20;;;;;;;;;7.00;6.25;;;;;22.61;55.90;100417.41;4902988;29;45979;-66
2022/09/13 03:00:46;;;;;;;;;8.00;7.00;;;;;22.59;56.02;100416.69;4903068;29;45375;-66
2022/09/13 03:03:14;;;;;;;;;8.25;7.00;;;;;22.53;56.61;100406.34;4903997;29;45510;-66
2022/09/13 03:05:40;;;;;;;;;11.75;7.75;;;;;22.60;56.44;100415.66;4904210;29;46550;-66
2022/09/13 03:08:09;;;;;;;;;6.50;6.50;;;;;22.56;56.48;100404.19;4903529;29;45622;-66
2022/09/13 03:10:53;;;;;;;;;6.00;6.00;;;;;22.57;55.53;100411.38;4900938;29;46984;-66
2022/09/13 03:13:39;;;;;;;;;7.00;6.00;;;;;22.58;55.97;100407.63;4904313;29;45330;-66
2022/09/13 03:16:34;;;;;;;;;6.50;6.50;;;;;22.58;56.35;100404.06;4904473;29;45797;-66
2022/09/13 03:19:30;;;;;;;;;6.00;6.00;;;;;22.57;56.56;100408.66;4896374;29;45605;-66
2022/09/13 03:22:22;;;;;;;;;8.00;7.00;;;;;22.57;56.87;100408.66;4903764;29;45517;-66
2022/09/13 03:25:11;;;;;;;;;9.00;7.00;;;;;22.56;56.81;100406.91;4893801;29;45305;-66
2022/09/13 03:28:11;;;;;;;;;5.75;5.75;;;;;22.52;56.43;100402.75;4899476;28;45480;-66
2022/09/13 03:30:43;;;;;;;;;6.00;6.00;;;;;22.50;56.04;100403.88;4901950;29;45486;-66
2022/09/13 03:33:40;;;;;;;;;6.25;5.00;;;;;22.47;55.91;100404.16;4904720;29;45618;-66
2022/09/13 03:36:09;;;;;;;;;6.50;6.50;;;;;22.54;56.11;100410.78;4903300;29;45309;-66
2022/09/13 03:39:16;;;;;;;;;7.25;6.00;;;;;22.52;55.77;100416.38;4902497;29;45459;-66
2022/09/13 03:41:48;;;;;;;;;4.00;4.00;;;;;22.54;55.82;100419.81;4810264;29;45901;-66
2022/09/13 03:44:18;;;;;;;;;2.00;1.50;;;;;22.53;55.87;100417.22;4891424;29;45571;-66
2022/09/13 03:46:47;;;;;;;;;5.75;5.75;;;;;22.45;55.31;100407.00;4904008;29;45542;-66
2022/09/13 03:49:18;;;;;;;;;4.00;3.50;;;;;22.45;55.74;100415.16;4896032;29;46338;-66
2022/09/13 03:51:47;;;;;;;;;3.75;3.75;;;;;22.50;55.75;100422.91;4902385;29;45441;-66
2022/09/13 03:54:28;;;;;;;;;4.50;3.75;;;;;22.43;55.40;100406.28;4904134;29;45454;-66
2022/09/13 03:57:14;;;;;;;;;5.75;5.75;;;;;22.48;55.78;100406.72;4903763;29;45458;-66
2022/09/13 03:59:44;;;;;;;;;3.75;3.75;;;;;22.50;55.30;100403.88;4881922;29;47208;-66
2022/09/13 04:02:10;;;;;;;;;4.75;4.00;;;;;22.49;55.13;100404.91;4900814;29;45600;-66
2022/09/13 04:04:40;;;;;;;;;4.25;4.00;;;;;22.51;55.64;100411.06;4903420;29;45519;-66
2022/09/13 04:07:06;;;;;;;;;4.25;3.25;;;;;22.52;56.21;100423.63;4902927;28;45554;-66
2022/09/13 04:09:31;;;;;;;;;3.50;3.50;;;;;22.45;57.04;100414.31;4900836;28;45451;-66
2022/09/13 04:11:57;;;;;;;;;5.00;4.50;;;;;22.52;57.19;100427.25;4895361;28;45527;-66
2022/09/13 04:14:25;;;;;;;;;4.25;4.25;;;;;22.50;57.09;100422.91;4899251;29;45419;-66
2022/09/13 04:16:50;;;;;;;;;5.25;4.25;;;;;22.50;56.73;100414.75;4893881;29;45383;-66
2022/09/13 04:19:16;;;;;;;;;4.00;2.50;;;;;22.48;56.80;100404.00;4896797;28;45451;-66
2022/09/13 04:21:41;;;;;;;;;5.00;4.00;;;;;22.49;56.73;100405.75;4901815;29;45604;-66
2022/09/13 04:24:06;;;;;;;;;5.00;4.25;;;;;22.46;57.59;100402.44;4903108;29;46102;-66
2022/09/13 04:26:33;;;;;;;;;4.00;4.00;;;;;22.48;58.35;100416.75;4896297;28;45383;-66
2022/09/13 04:28:59;;;;;;;;;4.75;4.75;;;;;22.48;57.47;100430.38;4898222;29;46651;-66
2022/09/13 04:31:24;;;;;;;;;6.00;4.75;;;;;22.48;57.06;100433.09;4902450;29;45396;-66
2022/09/13 04:33:50;;;;;;;;;5.25;4.25;;;;;22.46;57.07;100426.91;4903610;29;45459;-66
2022/09/13 04:36:15;;;;;;;;;6.75;5.00;;;;;22.46;57.52;100422.34;4902840;29;46986;-66
2022/09/13 04:38:41;;;;;;;;;7.00;7.00;;;;;22.45;57.66;100403.44;4901438;29;45880;-66
2022/09/13 04:41:06;;;;;;;;;4.00;4.00;;;;;22.41;56.65;100407.44;4901652;29;45380;-66
2022/09/13 04:43:31;;;;;;;;;6.00;6.00;;;;;22.38;57.58;100412.13;4903120;29;45388;-66
2022/09/13 04:46:00;;;;;;;;;8.00;5.00;;;;;22.43;57.91;100419.88;4902838;28;45356;-66
2022/09/13 04:48:25;;;;;;;;;5.75;4.75;;;;;22.44;57.95;100418.03;4894938;29;45423;-66
2022/09/13 04:50:51;;;;;;;;;5.00;5.00;;;;;22.43;58.08;100419.03;4893408;29;45440;-66
2022/09/13 04:53:17;;;;;;;;;5.00;5.00;;;;;22.36;58.53;100411.41;4899764;28;45502;-66
2022/09/13 04:55:43;;;;;;;;;7.00;5.00;;;;;22.41;58.33;100421.88;4885504;29;45419;-66
2022/09/13 04:58:08;;;;;;;;;5.50;4.00;;;;;22.38;57.98;100431.16;4898712;28;45340;-66
2022/09/13 05:00:34;;;;;;;;;6.25;3.75;;;;;22.39;57.64;100430.16;4899612;29;45589;-66
2022/09/13 05:03:00;;;;;;;;;4.00;3.25;;;;;22.39;58.39;100429.31;4900367;29;45474;-66
2022/09/13 05:05:27;;;;;;;;;6.00;5.75;;;;;22.36;57.95;100425.00;4902692;29;45848;-66
2022/09/13 05:07:53;;;;;;;;;4.00;2.50;;;;;22.35;57.81;100414.25;4901051;28;46033;-66
2022/09/13 05:10:18;;;;;;;;;7.00;5.75;;;;;22.33;57.91;100406.22;4900876;28;45482;-66
2022/09/13 05:12:44;;;;;;;;;6.75;5.50;;;;;22.30;57.61;100395.63;4901522;28;45408;-66
2022/09/13 05:15:10;;;;;;;;;4.00;4.00;;;;;22.34;58.01;100407.09;4902424;29;45400;-66
2022/09/13 05:17:36;;;;;;;;;5.75;5.75;;;;;22.33;58.13;100427.13;4901048;28;47063;-66
2022/09/13 05:20:01;;;;;;;;;5.00;4.00;;;;;22.35;58.48;100445.03;4897662;28;45432;-66
2022/09/13 05:22:27;;;;;;;;;4.00;4.00;;;;;22.34;58.34;100450.59;4900246;28;45508;-66
2022/09/13 05:24:52;;;;;;;;;4.75;4.75;;;;;22.35;57.61;100442.31;4900093;28;45657;-66
2022/09/13 05:27:17;;;;;;;;;5.00;5.00;;;;;22.31;58.07;100424.53;4899238;28;45451;-66
2022/09/13 05:29:43;;;;;;;;;3.75;2.50;;;;;22.31;57.93;100420.97;4882380;29;45409;-66
2022/09/13 05:32:08;;;;;;;;;4.00;4.00;;;;;22.35;58.45;100431.44;4899017;28;45304;-66
2022/09/13 05:34:33;;;;;;;;;3.00;3.00;;;;;22.34;57.88;100429.72;4900795;28;48592;-66
2022/09/13 05:36:58;;;;;;;;;5.00;4.25;;;;;22.35;58.22;100426.00;4900824;29;48450;-66
2022/09/13 05:39:24;;;;;;;;;3.25;3.25;;;;;22.31;58.34;100423.69;4896273;28;46414;-66
2022/09/13 05:41:49;;;;;;;;;4.50;3.00;;;;;22.33;58.18;100425.25;4901282;29;45700;-66
2022/09/13 05:44:14;;;;;;;;;3.75;3.75;;;;;22.22;58.11;100414.44;4899400;28;45820;-66
2022/09/13 05:46:41;;;;;;;;;5.50;3.25;;;;;22.33;58.23;100436.13;4902208;29;45365;-66
2022/09/13 05:49:07;;;;;;;;;2.75;2.75;;;;;22.22;58.45;100430.75;4891232;28;45334;-66
2022/09/13 05:51:32;;;;;;;;;5.00;4.00;;;;;22.33;58.28;100438.00;4899890;28;45376;-66
2022/09/13 05:53:58;;;;;;;;;5.50;4.75;;;;;22.31;58.65;100434.56;4899928;28;45526;-66
2022/09/13 05:56:26;;;;;;;;;4.25;3.50;;;;;22.29;58.12;100431.97;4901199;28;45260;-66
2022/09/13 05:58:52;;;;;;;;;4.00;3.00;;;;;22.27;58.47;100428.50;4898233;28;45947;-66
2022/09/13 06:01:20;;;;;;;;;4.00;4.00;;;;;22.30;58.37;100430.09;4900360;28;45464;-66
2022/09/13 06:03:48;;;;;;;;;5.00;4.00;;;;;22.27;58.71;100427.59;4901252;28;45648;-66
2022/09/13 06:06:13;;;;;;;;;5.75;5.00;;;;;22.22;58.87;100417.16;4900233;28;46260;-66
2022/09/13 06:08:38;;;;;;;;;4.00;4.00;;;;;22.26;59.13;100426.75;4899975;28;45661;-66
2022/09/13 06:11:10;;;;;;;;;4.00;4.00;;;;;22.26;58.34;100418.59;4899809;29;45372;-66
2022/09/13 06:13:36;;;;;;;;;3.50;3.50;;;;;22.24;57.59;100423.31;4900107;28;45628;-66
2022/09/13 06:16:04;;;;;;;;;4.75;2.25;;;;;22.21;58.14;100416.28;4901648;29;45419;-66
2022/09/13 06:18:29;;;;;;;;;5.00;5.00;;;;;22.12;57.90;100402.63;4896798;28;47084;-66
2022/09/13 06:21:21;;;;;;;;;4.00;4.00;;;;;22.18;57.79;100412.97;4899125;29;45283;-66
2022/09/13 06:23:52;;;;;;;;;6.25;5.50;;;;;22.16;57.78;100407.66;4891991;28;45675;-66
2022/09/13 06:26:20;;;;;;;;;4.25;4.25;;;;;22.18;57.71;100402.94;4880219;29;47174;-66
2022/09/13 06:28:50;;;;;;;;;4.25;4.25;;;;;22.19;57.36;100395.66;4894397;28;45751;-66
2022/09/13 06:31:17;;;;;;;;;4.75;4.75;;;;;22.19;57.70;100395.66;4900560;28;45319;-66
2022/09/13 06:33:43;;;;;;;;;4.75;4.75;;;;;22.09;57.45;100373.84;4904743;29;45354;-66
2022/09/13 06:36:14;;;;;;;;;6.50;6.50;;;;;22.16;57.61;100379.63;4900956;28;45724;-66
2022/09/13 06:39:51;;;;;;;;;;;;;;;;;;;;;
2022/09/13 06:42:12;;;;;;;;;5.00;4.25;;;;;22.20;57.49;100371.06;4901043;29;45452;-71
2022/09/13 06:44:44;;;;;;;;;4.25;4.25;;;;;22.04;57.41;100334.50;4902467;28;45451;-71
2022/09/13 06:47:10;;;;;;;;;3.75;3.75;;;;;22.23;57.07;100366.34;4889383;29;48134;-71
2022/09/13 06:49:38;;;;;;;;;5.50;3.00;;;;;22.20;57.12;100365.63;4885114;29;45422;-71
2022/09/13 06:52:21;;;;;;;;;6.75;5.00;;;;;22.16;57.55;100349.72;4902560;28;45599;-71
2022/09/13 06:54:46;;;;;;;;;5.75;4.00;;;;;22.25;56.94;100358.94;4885941;29;47030;-73
2022/09/13 06:57:11;;;;;;;;;6.00;5.25;;;;;22.03;57.37;100309.16;4885031;29;46965;-73
2022/09/13 06:59:37;;;;;;;;;5.00;5.00;;;;;22.24;57.07;100340.91;4897472;28;45604;-72
2022/09/13 07:02:02;;;;;;;;;6.50;5.75;;;;;22.19;57.03;100336.72;4904220;28;45360;-72
2022/09/13 07:04:30;;;;;;;;;5.25;5.25;;;;;22.23;57.32;100317.44;4887471;29;45510;-72
2022/09/13 07:06:57;;;;;;;;;7.00;7.00;;;;;22.20;56.69;100311.28;4897959;28;46121;-72
2022/09/13 07:09:23;;;;;;;;;7.50;6.00;;;;;22.12;56.90;100302.94;4901041;28;45743;-73
2022/09/13 07:11:50;;;;;;;;;5.75;5.50;;;;;22.08;57.56;100309.59;4900738;29;45696;-72
2022/09/13 07:14:27;;;;;;;;;6.00;6.00;;;;;22.14;57.39;100300.94;4901813;29;45676;-73
2022/09/13 07:16:53;;;;;;;;;6.25;3.25;;;;;22.30;57.00;100324.06;4902469;28;47676;-73
2022/09/13 07:19:27;;;;;;;;;5.00;5.00;;;;;22.18;56.92;100296.94;4900646;28;45550;-74
2022/09/13 07:21:54;;;;;;;;;5.50;3.50;;;;;22.23;56.99;100301.97;4902666;28;45511;-72
2022/09/13 07:24:20;;;;;;;;;5.25;5.25;;;;;22.21;57.44;100299.38;4888777;29;45901;-72
2022/09/13 07:26:46;;;;;;;;;5.25;4.50;;;;;22.08;57.02;100273.44;4886935;29;46093;-71
2022/09/13 07:29:15;;;;;;;;;7.00;5.00;;;;;22.32;56.74;100313.91;4893778;28;46079;-72
2022/09/13 07:31:43;;;;;;;;;6.75;6.00;;;;;22.35;57.07;100316.34;4895689;28;45768;-74
2022/09/13 07:34:16;;;;;;;;;7.25;6.25;;;;;22.20;57.38;100286.81;4882198;28;45650;-74
2022/09/13 07:36:42;;;;;;;;;4.25;4.25;;;;;22.36;57.46;100326.25;4899325;29;46409;-72
2022/09/13 07:39:08;;;;;;;;;5.00;4.25;;;;;22.13;56.78;100292.91;4894468;28;45636;-73
2022/09/13 07:41:34;;;;;;;;;5.75;4.00;;;;;22.13;57.11;100284.75;4898905;28;45646;-73
2022/09/13 07:44:00;;;;;;;;;5.00;5.00;;;;;22.40;56.96;100330.41;4902541;28;45392;-73
2022/09/13 07:46:31;;;;;;;;;4.00;3.50;;;;;22.35;56.98;100319.97;4905048;28;47070;-74
2022/09/13 07:48:57;;;;;;;;;5.00;5.00;;;;;22.15;57.14;100294.50;4884445;29;45397;-73
2022/09/13 07:51:25;;;;;;;;;5.00;5.00;;;;;22.14;57.02;100273.75;4902437;29;45555;-73
2022/09/13 07:53:54;;;;;;;;;7.00;4.00;;;;;22.25;57.25;100297.25;4885373;29;45550;-73
2022/09/13 07:56:22;;;;;;;;;5.50;5.50;;;;;22.27;56.98;100297.13;4902600;29;45429;-73
2022/09/13 07:58:50;;;;;;;;;6.25;5.25;;;;;22.32;56.72;100303.03;4887273;29;45607;-73
2022/09/13 08:01:23;;;;;;;;;5.50;5.00;;;;;22.31;56.56;100307.63;4901072;28;45492;-73
2022/09/13 08:03:59;;;;;;;;;5.00;5.00;;;;;22.36;56.68;100307.22;4902007;29;45381;-73
2022/09/13 08:06:26;;;;;;;;;7.00;5.50;;;;;22.41;56.89;100320.41;4885412;29;47949;-73
2022/09/13 08:08:52;;;;;;;;;6.00;4.00;;;;;22.42;56.55;100319.41;4901109;29;45589;-73
2022/09/13 08:11:21;;;;;;;;;7.00;7.00;;;;;22.32;57.01;100292.16;4889532;28;45575;-73
2022/09/13 08:13:48;;;;;;;;;6.00;5.00;;;;;22.36;56.90;100299.06;4901267;29;45550;-73
2022/09/13 08:16:14;;;;;;;;;7.50;5.00;;;;;22.47;56.97;100314.41;4897676;29;45550;-73
2022/09/13 08:18:47;;;;;;;;;5.00;5.00;;;;;22.59;56.79;100324.19;4900904;28;45685;-73
2022/09/13 08:21:13;;;;;;;;;7.50;6.00;;;;;22.56;56.58;100316.31;4896413;28;46104;-73
2022/09/13 08:23:39;;;;;;;;;7.00;7.00;;;;;22.72;56.75;100340.25;4902821;29;45405;-73
2022/09/13 08:26:06;;;;;;;;;8.75;6.75;;;;;22.67;57.10;100320.78;4901939;29;46206;-73
2022/09/13 08:28:33;;;;;;;;;9.25;7.75;;;;;22.75;56.83;100332.72;4897590;29;45478;-73
2022/09/13 08:31:09;;;;;;;;;5.00;3.75;;;;;22.79;57.11;100332.41;4879117;29;45647;-73
2022/09/13 08:33:36;;;;;;;;;4.75;4.00;;;;;22.57;57.10;100293.56;4899552;28;45606;-73
2022/09/13 08:36:02;;;;;;;;;5.25;4.50;;;;;22.63;58.07;100303.88;4899186;29;45904;-73
2022/09/13 08:38:28;;;;;;;;;6.50;5.00;;;;;22.69;57.60;100322.38;4900585;29;45513;-73
2022/09/13 08:41:01;;;;;;;;;4.00;3.50;;;;;22.83;56.74;100337.44;4901311;29;45498;-73
2022/09/13 08:43:29;;;;;;;;;4.00;4.00;;;;;22.87;57.25;100338.00;4908299;28;45567;-73
2022/09/13 08:46:03;;;;;;;;;3.25;3.25;;;;;22.88;57.02;100359.66;4901706;29;46376;-73
2022/09/13 08:48:40;;;;;;;;;6.00;5.25;;;;;22.89;56.79;100369.56;4898199;28;46664;-73
2022/09/13 08:51:26;;;;;;;;;5.25;3.00;;;;;22.91;57.18;100369.41;4895959;29;45421;-73
2022/09/13 08:53:51;;;;;;;;;4.50;4.50;;;;;22.79;57.35;100351.44;4900408;28;45418;-73
2022/09/13 08:56:28;;;;;;;;;4.00;4.00;;;;;22.97;57.38;100371.59;4905860;28;45714;-73
2022/09/13 08:59:22;;;;;;;;;4.00;4.00;;;;;22.76;57.16;100339.84;4899077;29;45447;-73
2022/09/13 09:02:01;;;;;;;;;5.50;3.75;;;;;22.79;56.88;100348.72;4900613;29;45385;-73
2022/09/13 09:04:26;;;;;;;;;3.25;3.00;;;;;23.01;56.58;100381.19;4900708;28;45456;-73
2022/09/13 09:07:09;;;;;;;;;4.00;4.00;;;;;22.74;56.52;100330.13;4901362;28;46016;-73
2022/09/13 09:09:43;;;;;;;;;5.50;5.25;;;;;23.02;56.91;100380.19;4896792;29;45408;-74
2022/09/13 09:12:18;;;;;;;;;3.50;3.50;;;;;23.03;56.61;100381.91;4901437;29;45425;-74
2022/09/13 09:14:53;;;;;;;;;4.00;4.00;;;;;23.02;56.65;100384.75;4899660;28;45492;-73
2022/09/13 09:17:27;;;;;;;;;3.75;3.75;;;;;23.03;57.11;100397.38;4900413;28;46366;-73
2022/09/13 09:20:39;;;;;;;;;3.00;3.00;;;;;23.07;56.94;100398.84;4896396;29;45463;-73
2022/09/13 09:23:13;;;;;;;;;3.25;3.25;;;;;22.97;56.93;100379.75;4895697;28;45548;-73
2022/09/13 09:25:38;;;;;;;;;3.75;3.75;;;;;22.94;57.01;100366.41;4901191;28;45387;-73
2022/09/13 09:28:18;;;;;;;;;0.75;0.00;;;;;23.08;56.62;100378.81;4910538;28;47829;-70
2022/09/13 09:31:01;;;;;;;;;4.50;4.50;;;;;23.12;56.30;100378.38;4895230;29;45658;-72
2022/09/13 09:33:31;;;;;;;;;4.50;4.50;;;;;23.13;56.63;100384.69;4900799;28;45485;-71
2022/09/13 09:36:25;;;;;;;;;5.00;3.50;;;;;23.06;56.76;100373.50;4896546;29;45563;-73
2022/09/13 09:38:50;;;;;;;;;4.75;4.00;;;;;23.17;57.07;100399.75;4889181;29;45504;-68
2022/09/13 09:41:34;;;;;;;;;6.75;5.00;;;;;23.18;56.86;100404.19;4897061;28;45464;-73
2022/09/13 09:44:18;;;;;;;;;3.00;3.00;;;;;23.19;57.25;100403.19;4900192;29;45401;-73
2022/09/13 09:46:53;;;;;;;;;4.25;4.25;;;;;23.15;58.02;100407.19;4897399;28;45743;-73
2022/09/13 09:52:17;;;;;;;;;4.00;4.00;;;;;23.06;57.82;100375.31;4899724;29;45675;-73
2022/09/13 09:54:43;;;;;;;;;6.00;5.50;;;;;23.24;57.57;100409.06;4901969;28;45601;-72
2022/09/13 09:57:09;;;;;;;;;6.75;5.25;;;;;23.25;57.67;100405.34;4902045;29;45477;-73
2022/09/13 09:59:34;;;;;;;;;4.25;4.25;;;;;23.09;57.63;100383.25;4886125;29;46205;-73
2022/09/13 10:02:13;;;;;;;;;5.00;4.75;;;;;23.07;57.68;100377.06;4897319;29;45651;-73
2022/09/13 10:04:39;;;;;;;;;7.00;7.00;;;;;23.28;57.58;100399.59;4898685;29;45464;-73
2022/09/13 10:07:29;;;;;;;;;6.25;4.75;;;;;23.33;57.52;100414.69;4901175;29;45470;-73
2022/09/13 10:10:05;;;;;;;;;5.50;4.00;;;;;23.35;57.48;100418.97;4899253;28;46069;-73
2022/09/13 10:12:34;;;;;;;;;5.00;4.25;;;;;23.22;57.68;100393.88;4899908;28;45499;-74
2022/09/13 10:15:16;;;;;;;;;7.25;6.00;;;;;23.22;57.30;100383.84;4901188;28;45439;-73
2022/09/13 10:17:41;;;;;;;;;3.25;3.25;;;;;23.34;57.41;100400.94;4900167;29;45633;-73
2022/09/13 10:20:13;;;;;;;;;4.50;4.00;;;;;23.45;56.99;100410.81;4897734;29;46047;-73
2022/09/13 10:22:38;;;;;;;;;4.50;4.50;;;;;23.46;56.86;100416.13;4898991;29;46020;-73
2022/09/13 10:25:24;;;;;;;;;2.50;2.50;;;;;23.48;56.73;100413.28;4899165;28;45443;-73
2022/09/13 10:27:57;;;;;;;;;6.00;4.00;;;;;23.44;56.65;100404.53;4914653;28;46427;-73
2022/09/13 10:30:52;;;;;;;;;4.25;4.25;;;;;23.46;55.94;100401.66;4896261;28;46256;-73
2022/09/13 10:33:36;;;;;;;;;5.25;5.25;;;;;23.39;56.29;100379.56;4887620;29;45603;-74
2022/09/13 10:36:12;;;;;;;;;4.00;4.00;;;;;23.36;56.09;100377.13;4898811;29;45478;-73
2022/09/13 10:38:39;;;;;;;;;4.50;4.50;;;;;23.51;55.84;100390.34;4898714;28;45575;-73
2022/09/13 10:41:10;;;;;;;;;5.00;5.00;;;;;23.43;55.69;100371.97;4898452;29;46444;-73
2022/09/13 10:43:36;;;;;;;;;3.75;3.75;;;;;23.58;56.08;100389.63;4900637;29;45407;-74
2022/09/13 10:46:05;;;;;;;;;4.00;4.00;;;;;23.62;56.05;100393.78;4881009;29;45376;-74
2022/09/13 10:48:44;;;;;;;;;5.00;4.00;;;;;23.63;55.67;100381.03;4890038;28;45634;-74
2022/09/13 10:51:27;;;;;;;;;5.25;5.00;;;;;23.58;55.77;100370.53;4883156;29;46477;-74
2022/09/13 10:54:25;;;;;;;;;5.00;4.00;;;;;23.72;55.63;100390.19;4883760;29;45602;-73
2022/09/13 10:56:51;;;;;;;;;4.25;4.25;;;;;23.73;55.33;100384.59;4849666;29;45377;-72
2022/09/13 10:59:20;;;;;;;;;5.50;4.50;;;;;23.75;55.48;100385.31;4897321;29;45479;-73
2022/09/13 11:02:04;;;;;;;;;4.50;4.50;;;;;23.78;55.57;100379.59;4900540;29;45337;-73
2022/09/13 11:05:07;;;;;;;;;5.00;4.25;;;;;23.80;55.22;100374.84;4893291;29;45680;-73
2022/09/13 11:07:55;;;;;;;;;3.25;3.25;;;;;23.83;55.61;100371.00;4892012;29;45745;-73
2022/09/13 11:10:47;;;;;;;;;6.25;4.00;;;;;23.87;55.43;100364.25;4899047;29;45690;-73
2022/09/13 11:13:46;;;;;;;;;4.00;4.00;;;;;23.91;55.63;100362.97;4899754;29;46234;-73
2022/09/13 11:16:37;;;;;;;;;3.00;3.00;;;;;23.93;55.22;100369.13;4899947;29;45312;-73
2022/09/13 11:19:21;;;;;;;;;4.25;4.25;;;;;23.99;55.12;100370.41;4893087;29;45452;-73
2022/09/13 11:22:04;;;;;;;;;4.75;4.00;;;;;24.03;54.83;100363.66;4901472;29;45336;-74
2022/09/13 11:24:54;;;;;;;;;4.25;4.25;;;;;24.02;54.47;100353.75;4886492;29;47286;-74
2022/09/13 11:28:06;;;;;;;;;4.00;4.00;;;;;24.12;54.76;100359.19;4903702;29;46090;-73
2022/09/13 11:30:59;;;;;;;;;3.25;3.25;;;;;24.13;55.25;100352.75;4901476;29;45456;-74
2022/09/13 11:33:34;;;;;;;;;5.75;5.75;;;;;24.22;54.16;100354.56;4891306;29;45387;-75
2022/09/13 11:36:11;;;;;;;;;4.25;4.00;;;;;24.25;54.62;100351.56;4899718;29;45344;-74
2022/09/13 11:39:06;;;;;;;;;4.75;4.75;;;;;24.29;54.23;100347.53;4896302;28;45454;-74
2022/09/13 11:41:34;;;;;;;;;5.50;5.00;;;;;24.33;55.36;100350.81;4901289;29;45804;-73
2022/09/13 11:44:02;;;;;;;;;4.00;4.00;;;;;24.37;54.88;100364.03;4899663;29;45452;-74
2022/09/13 11:46:43;;;;;;;;;4.75;4.25;;;;;24.40;54.73;100360.97;4901898;29;47690;-73
2022/09/13 11:49:44;;;;;;;;;5.75;5.25;;;;;24.45;53.93;100354.22;4902159;29;45278;-73
2022/09/13 11:52:34;;;;;;;;;2.25;2.25;;;;;24.46;54.13;100332.25;4888173;29;45952;-73
2022/09/13 11:55:15;;;;;;;;;4.75;4.75;;;;;24.49;53.74;100336.53;4895427;29;45818;-72
2022/09/13 11:57:47;;;;;;;;;4.00;4.00;;;;;24.51;53.95;100338.13;4897225;28;46405;-72
2022/09/13 12:00:18;;;;;;;;;5.25;5.25;;;;;24.56;54.55;100332.25;4898042;29;45639;-73